This is the latest recevied weather packets stored in our database for station/object KJ5IMV-9. If no packets are shown the sender has not sent any weather packets the latest 10 day(s).
| Time | Temp. | Humidity | Pressure | Rain* | Wind** | Luminosity | Snow |
|---|---|---|---|---|---|---|---|
| 1788084340 | 24.44° C | 98% | 1010.1 hPa | - | - | - | - |
| 1788078912 | 25° C | 96% | 1010.2 hPa | - | - | - | - |
| 1788072583 | 26.11° C | 95% | 1010.4 hPa | - | - | - | - |
| 1788069269 | 26.67° C | 94% | 1010.5 hPa | - | - | - | - |
| 1788068665 | 26.67° C | 93% | 1010.4 hPa | - | - | - | - |
| 1788065951 | 27.22° C | 91% | 1010.8 hPa | - | - | - | - |
| 1788063540 | 27.78° C | 89% | 1010.7 hPa | - | - | - | - |
| 1788060828 | 28.33° C | 86% | 1010.5 hPa | - | - | - | - |
| 1788059622 | 28.89° C | 85% | 1010.4 hPa | - | - | - | - |
| 1788058116 | 28.89° C | 84% | 1010.3 hPa | - | - | - | - |
| 1788056911 | 29.44° C | 83% | 1010 hPa | - | - | - | - |
| 1788056307 | 29.44° C | 83% | 1009.8 hPa | - | - | - | - |
| 1788055101 | 30° C | 82% | 1009.4 hPa | - | - | - | - |
| 1788053293 | 30.56° C | 80% | 1009 hPa | - | - | - | - |
| 1788051787 | 31.11° C | 78% | 1008.8 hPa | - | - | - | - |
| 1788051183 | 31.67° C | 78% | 1008.7 hPa | - | - | - | - |
| 1788046363 | 35° C | 55% | 1008.8 hPa | - | - | - | - |
| 1788040032 | 36.67° C | 54% | 1009 hPa | - | - | - | - |
| 1788038826 | 36.67° C | 52% | 1009.2 hPa | - | - | - | - |
| 1788038526 | 36.67° C | 52% | 1009.3 hPa | - | - | - | - |
| 1788038225 | 36.67° C | 54% | 1009.3 hPa | - | - | - | - |
| 1788037920 | 36.67° C | 56% | 1009.4 hPa | - | - | - | - |
| 1788036416 | 36.11° C | 57% | 1009.7 hPa | - | - | - | - |
| 1788033098 | 35° C | 63% | 1010.7 hPa | - | - | - | - |
| 1788024962 | 33.89° C | 71% | 1012.5 hPa | - | - | - | - |
* Rain since midnight (hover to see other rain measurements)
** Current wind speed in m/s (hover to see current wind gust speed)